Terminal Aerodrome Forecast
Issued by NWS

Current Version | Previous Version | Text Only | Print | Product List | Glossary On
Versions: 1 2 3 4 5 6 7 8 9 10 11 12 13 14 15 16 17 18 19
000
FTUS41 KBOX 181122
TAFACK
TAF
KACK 181122Z 1812/1912 06014KT P6SM BKN015
     FM181600 06012KT P6SM BKN020
     FM182200 07008KT P6SM BKN025
     FM190200 VRB03KT P6SM BKN150
     FM191000 27007KT P6SM SCT140=

USA.gov is the U.S. government's official web portal to all federal, state and local government web resources and services.